createdAt,value
2022-11-12T00:01:44.170Z,24.20
2022-11-12T00:04:46.399Z,24.20
2022-11-12T00:07:48.314Z,24.10
2022-11-12T00:10:50.574Z,24.40
2022-11-12T00:13:52.428Z,24.10
2022-11-12T00:16:54.568Z,24.00
2022-11-12T00:19:56.511Z,24.00
2022-11-12T00:22:58.688Z,24.40
2022-11-12T00:26:01.709Z,24.00
2022-11-12T00:29:03.978Z,23.60
2022-11-12T00:32:07.600Z,24.00
2022-11-12T00:35:13.706Z,24.00
2022-11-12T00:38:16.122Z,23.70
2022-11-12T00:41:18.329Z,23.80
2022-11-12T00:44:20.494Z,24.10
2022-11-12T00:47:22.619Z,24.00
2022-11-12T00:50:25.590Z,23.80
2022-11-12T00:53:27.849Z,23.80
2022-11-12T00:56:35.322Z,23.90
2022-11-12T00:59:37.703Z,23.90
2022-11-12T01:02:44.193Z,24.00
2022-11-12T01:05:48.672Z,24.00
2022-11-12T01:08:51.006Z,23.90
2022-11-12T01:11:53.171Z,24.10
2022-11-12T01:14:55.656Z,24.10
2022-11-12T01:17:57.822Z,23.90
2022-11-12T01:21:04.592Z,24.40
2022-11-12T01:24:07.303Z,24.60
2022-11-12T01:27:09.162Z,24.80
2022-11-12T01:30:11.717Z,24.90
2022-11-12T01:33:13.609Z,25.00
2022-11-12T01:36:18.198Z,25.30
2022-11-12T01:39:20.277Z,25.10
2022-11-12T01:42:26.473Z,25.00
2022-11-12T01:45:29.049Z,24.40
2022-11-12T01:48:51.991Z,24.40
2022-11-12T01:51:56.407Z,24.40
2022-11-12T01:55:05.595Z,24.40
2022-11-12T01:58:14.061Z,24.10
2022-11-12T02:01:16.328Z,24.00
2022-11-12T02:04:18.668Z,23.90
2022-11-12T02:07:23.162Z,24.00
2022-11-12T02:10:25.785Z,24.20
2022-11-12T02:13:46.415Z,24.30
2022-11-12T02:16:49.197Z,23.50
2022-11-12T02:19:53.005Z,23.80
2022-11-12T02:22:54.906Z,23.60
2022-11-12T02:25:57.140Z,23.40
2022-11-12T02:28:59.160Z,23.50
2022-11-12T02:32:01.379Z,23.50
2022-11-12T02:35:03.440Z,24.00
2022-11-12T02:38:06.931Z,23.50
2022-11-12T02:41:08.855Z,23.50
2022-11-12T02:44:11.014Z,23.50
2022-11-12T02:47:12.866Z,23.30
2022-11-12T02:50:15.401Z,23.30
2022-11-12T02:53:17.360Z,23.30
2022-11-12T02:56:19.503Z,23.50
2022-11-12T02:59:21.414Z,23.50
2022-11-12T03:02:23.586Z,23.60
2022-11-12T03:05:31.189Z,23.40
2022-11-12T03:08:33.349Z,23.30
2022-11-12T03:11:35.284Z,23.10
2022-11-12T03:14:37.567Z,23.20
2022-11-12T03:17:39.434Z,23.20
2022-11-12T03:20:41.830Z,23.10
2022-11-12T03:23:43.675Z,23.40
2022-11-12T03:26:45.820Z,23.10
2022-11-12T03:29:47.753Z,23.20
2022-11-12T03:32:49.869Z,23.10
2022-11-12T03:35:52.126Z,23.10
2022-11-12T03:38:54.298Z,23.70
2022-11-12T03:41:56.195Z,23.60
2022-11-12T03:44:58.356Z,23.90
2022-11-12T03:48:00.325Z,24.10
2022-11-12T03:51:02.474Z,24.50
2022-11-12T03:54:04.608Z,24.90
2022-11-12T03:57:06.745Z,24.50
2022-11-12T04:00:10.432Z,24.50
2022-11-12T04:03:12.614Z,24.50
2022-11-12T04:06:32.951Z,24.60
2022-11-12T04:09:35.061Z,24.50
2022-11-12T04:12:55.602Z,24.60
2022-11-12T04:16:17.962Z,24.80
2022-11-12T04:19:38.388Z,25.00
2022-11-12T04:22:40.532Z,25.00
2022-11-12T04:26:01.093Z,24.80
2022-11-12T04:29:22.040Z,24.90
2022-11-12T04:32:24.172Z,24.80
2022-11-12T04:35:27.105Z,24.90
2022-11-12T04:38:29.180Z,25.00
2022-11-12T04:41:50.189Z,25.00
2022-11-12T04:45:01.511Z,25.60
2022-11-12T04:48:03.921Z,25.20
2022-11-12T04:51:24.938Z,25.20
2022-11-12T04:54:27.086Z,25.30
2022-11-12T04:57:28.969Z,25.30
2022-11-12T05:00:31.587Z,25.50
2022-11-12T05:03:33.478Z,26.10
2022-11-12T05:06:54.454Z,25.70
2022-11-12T05:09:56.376Z,25.80
2022-11-12T05:12:58.721Z,25.90
2022-11-12T05:16:01.586Z,26.00
2022-11-12T05:19:04.880Z,26.10
2022-11-12T05:22:07.339Z,26.10
2022-11-12T05:25:09.925Z,26.20
2022-11-12T05:28:11.777Z,26.10
2022-11-12T05:31:13.937Z,26.10
2022-11-12T05:34:21.600Z,26.20
2022-11-12T05:37:25.079Z,26.20
2022-11-12T05:40:27.003Z,26.30
2022-11-12T05:43:29.163Z,26.40
2022-11-12T05:46:31.112Z,26.40
2022-11-12T05:49:33.244Z,26.40
2022-11-12T05:52:35.161Z,26.90
2022-11-12T05:55:37.398Z,26.40
2022-11-12T05:58:39.377Z,26.40
2022-11-12T06:01:44.639Z,26.40
2022-11-12T06:04:46.547Z,26.40
2022-11-12T06:07:48.867Z,26.40
2022-11-12T06:10:55.162Z,26.40
2022-11-12T06:13:57.322Z,26.40
2022-11-12T06:16:59.174Z,26.40
2022-11-12T06:20:01.440Z,26.40
2022-11-12T06:23:04.293Z,26.40
2022-11-12T06:26:06.476Z,26.40
2022-11-12T06:29:08.443Z,26.40
2022-11-12T06:32:11.161Z,26.40
2022-11-12T06:35:13.495Z,26.40
2022-11-12T06:38:15.747Z,26.40
2022-11-12T06:41:17.936Z,26.40
2022-11-12T06:44:22.303Z,26.40
2022-11-12T06:47:24.556Z,26.40
2022-11-12T06:50:26.714Z,26.30
2022-11-12T06:53:28.568Z,26.40
2022-11-12T06:56:30.710Z,26.30
2022-11-12T06:59:32.597Z,26.30
2022-11-12T07:02:34.747Z,26.20
2022-11-12T07:05:38.282Z,26.30
2022-11-12T07:08:41.543Z,26.30
2022-11-12T07:11:43.481Z,26.30
2022-11-12T07:14:46.649Z,26.30
2022-11-12T07:17:48.547Z,26.40
2022-11-12T07:20:50.801Z,26.40
2022-11-12T07:23:52.887Z,26.40
2022-11-12T07:26:54.995Z,26.40
2022-11-12T07:29:57.247Z,26.40
2022-11-12T07:33:01.802Z,26.50
2022-11-12T07:36:09.310Z,26.40
2022-11-12T07:39:13.288Z,26.50
2022-11-12T07:42:15.257Z,26.40
2022-11-12T07:45:17.402Z,26.40
2022-11-12T07:48:19.385Z,26.60
2022-11-12T07:51:23.942Z,26.60
2022-11-12T07:54:25.806Z,26.60
2022-11-12T07:57:28.135Z,26.50
2022-11-12T08:00:30.027Z,26.60
2022-11-12T08:03:32.203Z,27.00
2022-11-12T08:06:34.857Z,26.50
2022-11-12T08:09:36.998Z,26.60
2022-11-12T08:12:38.869Z,26.50
2022-11-12T08:15:41.041Z,26.40
2022-11-12T08:18:44.406Z,26.40
2022-11-12T08:21:46.732Z,26.40
2022-11-12T08:24:48.735Z,26.30
2022-11-12T08:27:55.371Z,26.40
2022-11-12T08:30:57.927Z,26.40
2022-11-12T08:34:11.878Z,26.40
2022-11-12T08:37:15.293Z,26.40
2022-11-12T08:40:17.448Z,26.20
2022-11-12T08:43:19.538Z,26.30
2022-11-12T08:46:21.667Z,26.40
2022-11-12T08:49:23.607Z,26.40
2022-11-12T08:52:25.768Z,26.40
2022-11-12T08:55:28.794Z,26.40
2022-11-12T08:58:31.158Z,26.50
2022-11-12T09:01:33.180Z,26.40
2022-11-12T09:04:35.354Z,26.40
2022-11-12T09:07:49.487Z,26.40
2022-11-12T09:10:52.979Z,26.40
2022-11-12T09:13:54.973Z,26.30
2022-11-12T09:16:57.190Z,26.40
2022-11-12T09:19:59.123Z,26.30
2022-11-12T09:23:04.071Z,26.40
2022-11-12T09:26:06.200Z,26.50
2022-11-12T09:29:10.695Z,26.40
2022-11-12T09:32:12.623Z,26.50
2022-11-12T09:35:14.874Z,26.50
2022-11-12T09:38:18.525Z,26.50
2022-11-12T09:41:39.103Z,26.30
2022-11-12T09:44:44.058Z,26.80
2022-11-12T09:47:53.546Z,26.40
2022-11-12T09:51:10.271Z,26.30
2022-11-12T09:54:18.384Z,26.30
2022-11-12T09:57:20.432Z,26.20
2022-11-12T10:00:22.796Z,26.20
2022-11-12T10:03:44.017Z,26.30
2022-11-12T10:07:08.924Z,26.20
2022-11-12T10:10:30.526Z,26.10
2022-11-12T10:13:57.932Z,26.10
2022-11-12T10:17:17.183Z,26.30
2022-11-12T10:20:38.701Z,26.40
2022-11-12T10:27:22.900Z,26.10
2022-11-12T10:30:25.807Z,26.10
2022-11-12T10:33:32.005Z,26.30
2022-11-12T10:36:36.852Z,26.20
2022-11-12T10:39:51.500Z,26.20
2022-11-12T10:43:03.655Z,26.20
2022-11-12T10:46:23.993Z,26.40
2022-11-12T10:49:25.828Z,26.40
2022-11-12T10:52:28.068Z,26.30
2022-11-12T10:55:32.385Z,26.20
2022-11-12T10:58:39.049Z,26.50
2022-11-12T11:01:56.644Z,26.40
2022-11-12T11:04:58.923Z,26.40
2022-11-12T11:08:02.350Z,26.40
2022-11-12T11:11:28.684Z,26.20
2022-11-12T11:14:35.591Z,26.30
2022-11-12T11:17:37.893Z,26.10
2022-11-12T11:20:46.856Z,26.30
2022-11-12T11:24:03.041Z,26.10
2022-11-12T11:27:04.972Z,26.30
2022-11-12T11:30:20.013Z,26.30
2022-11-12T11:33:30.422Z,26.30
2022-11-12T11:36:32.546Z,26.30
2022-11-12T11:40:00.426Z,26.30
2022-11-12T11:43:15.622Z,26.40
2022-11-12T11:46:23.487Z,26.30
2022-11-12T11:49:28.590Z,26.50
2022-11-12T11:52:30.421Z,26.40
2022-11-12T11:55:50.257Z,26.30
2022-11-12T11:59:11.920Z,26.30
2022-11-12T12:02:41.803Z,26.40
2022-11-12T12:06:05.258Z,26.70
2022-11-12T12:09:45.962Z,26.60
2022-11-12T12:13:00.456Z,26.50
2022-11-12T12:16:22.281Z,26.50
2022-11-12T12:19:32.590Z,26.90
2022-11-12T12:23:02.586Z,27.00
2022-11-12T12:26:11.138Z,26.90
2022-11-12T12:29:19.521Z,26.70
2022-11-12T12:32:35.103Z,26.80
2022-11-12T12:35:46.267Z,26.90
2022-11-12T12:39:08.325Z,26.80
2022-11-12T12:42:27.824Z,26.90
2022-11-12T12:45:41.909Z,27.00
2022-11-12T12:48:46.155Z,26.70
2022-11-12T12:51:52.948Z,26.80
2022-11-12T12:54:58.248Z,26.70
2022-11-12T12:58:00.352Z,26.50
2022-11-12T13:01:09.269Z,26.50
2022-11-12T13:04:11.922Z,26.80
2022-11-12T13:07:14.378Z,26.50
2022-11-12T13:10:44.538Z,26.60
2022-11-12T13:13:47.238Z,27.00
2022-11-12T13:16:52.128Z,26.40
2022-11-12T13:19:54.282Z,26.50
2022-11-12T13:22:56.214Z,26.60
2022-11-12T13:26:49.836Z,26.40
2022-11-12T13:29:51.727Z,26.70
2022-11-12T13:32:58.088Z,26.70
2022-11-12T13:36:26.849Z,26.50
2022-11-12T13:39:32.237Z,26.70
2022-11-12T13:42:50.738Z,26.60
2022-11-12T13:45:58.383Z,26.70
2022-11-12T13:49:12.262Z,26.60
2022-11-12T13:52:15.984Z,26.90
2022-11-12T13:55:22.477Z,27.00
2022-11-12T13:58:31.129Z,27.30
2022-11-12T14:01:34.395Z,27.30
2022-11-12T14:04:36.581Z,27.10
2022-11-12T14:08:25.006Z,27.10
2022-11-12T14:11:38.664Z,27.20
2022-11-12T14:14:59.455Z,27.10
2022-11-12T14:18:26.675Z,27.10
2022-11-12T14:21:29.829Z,27.30
2022-11-12T14:24:34.260Z,27.40
2022-11-12T14:27:37.570Z,27.40
2022-11-12T14:30:45.336Z,27.40
2022-11-12T14:33:47.275Z,27.50
2022-11-12T14:36:49.698Z,27.50
2022-11-12T14:39:51.775Z,27.40
2022-11-12T14:42:54.889Z,27.40
2022-11-12T14:45:59.068Z,27.40
2022-11-12T14:49:04.381Z,27.50
2022-11-12T14:52:14.916Z,27.50
2022-11-12T14:55:21.304Z,27.60
2022-11-12T14:58:27.191Z,27.60
2022-11-12T15:05:04.131Z,27.70
2022-11-12T15:08:11.644Z,27.80
2022-11-12T15:11:28.617Z,27.90
2022-11-12T15:14:31.106Z,27.90
2022-11-12T15:17:35.539Z,27.90
2022-11-12T15:20:37.815Z,27.80
2022-11-12T15:23:51.921Z,27.70
2022-11-12T15:26:57.010Z,27.70
2022-11-12T15:30:17.187Z,27.80
2022-11-12T15:33:22.650Z,27.70
2022-11-12T15:36:24.787Z,27.70
2022-11-12T15:39:28.653Z,27.80
2022-11-12T15:42:33.933Z,27.80
2022-11-12T15:45:36.103Z,27.70
2022-11-12T15:48:38.186Z,27.80
2022-11-12T15:51:40.326Z,27.90
2022-11-12T15:54:42.271Z,28.00
2022-11-12T15:57:48.433Z,28.00
2022-11-12T16:00:51.060Z,28.00
2022-11-12T16:03:53.319Z,27.90
2022-11-12T16:06:55.218Z,27.90
2022-11-12T16:09:57.361Z,27.90
2022-11-12T16:13:00.957Z,27.90
2022-11-12T16:16:07.233Z,27.90
2022-11-12T16:19:14.246Z,28.00
2022-11-12T16:22:16.625Z,28.00
2022-11-12T16:25:19.872Z,28.00
2022-11-12T16:28:22.031Z,28.30
2022-11-12T16:31:24.921Z,27.90
2022-11-12T16:34:27.295Z,27.80
2022-11-12T16:37:29.191Z,27.80
2022-11-12T16:40:31.336Z,27.80
2022-11-12T16:43:33.314Z,27.90
2022-11-12T16:46:40.289Z,27.90
2022-11-12T16:49:42.839Z,28.10
2022-11-12T16:52:45.523Z,27.90
2022-11-12T16:55:47.508Z,27.90
2022-11-12T16:58:49.996Z,27.90
2022-11-12T17:01:51.875Z,27.80
2022-11-12T17:04:54.054Z,27.80
2022-11-12T17:07:57.880Z,27.80
2022-11-12T17:11:06.611Z,27.70
2022-11-12T17:14:08.778Z,27.70
2022-11-12T17:17:10.950Z,27.70
2022-11-12T17:20:12.856Z,27.70
2022-11-12T17:23:14.993Z,27.70
2022-11-12T17:26:21.685Z,27.70
2022-11-12T17:29:24.991Z,27.70
2022-11-12T17:32:26.919Z,27.70
2022-11-12T17:35:31.403Z,27.70
2022-11-12T17:38:33.372Z,27.70
2022-11-12T17:41:35.554Z,27.70
2022-11-12T17:44:37.476Z,27.80
2022-11-12T17:47:40.757Z,27.80
2022-11-12T17:50:42.807Z,27.80
2022-11-12T17:53:45.137Z,27.90
2022-11-12T17:56:47.036Z,27.80
2022-11-12T17:59:49.308Z,27.80
2022-11-12T18:02:51.970Z,27.80
2022-11-12T18:06:00.691Z,27.80
2022-11-12T18:09:05.765Z,27.90
2022-11-12T18:12:08.087Z,27.90
2022-11-12T18:15:13.109Z,27.90
2022-11-12T18:18:15.391Z,28.00
2022-11-12T18:21:17.852Z,27.90
2022-11-12T18:24:20.139Z,27.90
2022-11-12T18:27:22.136Z,28.10
2022-11-12T18:30:24.332Z,28.10
2022-11-12T18:33:26.602Z,28.10
2022-11-12T18:36:29.157Z,28.10
2022-11-12T18:39:34.385Z,28.10
2022-11-12T18:42:36.556Z,28.00
2022-11-12T18:45:41.073Z,27.90
2022-11-12T18:48:44.396Z,27.90
2022-11-12T18:51:46.403Z,28.10
2022-11-12T18:54:48.520Z,28.00
2022-11-12T18:57:54.607Z,28.00
2022-11-12T19:01:06.895Z,28.10
2022-11-12T19:04:10.962Z,28.60
2022-11-12T19:07:14.733Z,28.10
2022-11-12T19:10:18.336Z,28.20
2022-11-12T19:13:20.542Z,28.20
2022-11-12T19:16:23.385Z,28.20
2022-11-12T19:19:25.603Z,29.00
2022-11-12T19:22:29.828Z,28.50
2022-11-12T19:25:35.460Z,28.40
2022-11-12T19:28:37.524Z,28.40
2022-11-12T19:31:40.934Z,28.30
2022-11-12T19:34:42.886Z,28.30
2022-11-12T19:37:45.926Z,28.20
2022-11-12T19:40:48.335Z,28.10
2022-11-12T19:43:51.067Z,28.10
2022-11-12T19:47:03.536Z,28.10
2022-11-12T19:50:07.351Z,28.10
2022-11-12T19:53:09.257Z,28.20
2022-11-12T19:56:13.763Z,28.10
2022-11-12T19:59:17.304Z,28.20
2022-11-12T20:02:20.175Z,28.20
2022-11-12T20:05:22.285Z,28.20
2022-11-12T20:08:25.400Z,28.30
2022-11-12T20:11:27.478Z,28.30
2022-11-12T20:14:30.005Z,28.30
2022-11-12T20:17:33.891Z,28.20
2022-11-12T20:20:38.329Z,28.30
2022-11-12T20:23:45.816Z,28.30
2022-11-12T20:26:49.050Z,28.20
2022-11-12T20:29:51.094Z,28.30
2022-11-12T20:32:53.313Z,28.40
2022-11-12T20:35:56.817Z,28.30
2022-11-12T20:39:04.158Z,28.40
2022-11-12T20:42:06.058Z,28.40
2022-11-12T20:45:08.875Z,28.40
2022-11-12T20:48:10.725Z,28.50
2022-11-12T20:51:24.240Z,28.50
2022-11-12T20:54:27.261Z,28.60
2022-11-12T20:57:29.459Z,28.70
2022-11-12T21:00:31.512Z,28.70
2022-11-12T21:03:35.807Z,28.70
2022-11-12T21:06:37.745Z,28.80
2022-11-12T21:09:40.013Z,28.80
2022-11-12T21:12:42.046Z,28.80
2022-11-12T21:15:48.576Z,28.90
2022-11-12T21:18:50.433Z,28.90
2022-11-12T21:21:52.639Z,29.00
2022-11-12T21:24:54.499Z,29.00
2022-11-12T21:27:57.807Z,29.00
2022-11-12T21:31:04.778Z,29.00
2022-11-12T21:34:07.082Z,29.00
2022-11-12T21:37:10.207Z,28.90
2022-11-12T21:40:12.328Z,28.90
2022-11-12T21:43:14.469Z,28.90
2022-11-12T21:46:20.294Z,28.90
2022-11-12T21:49:22.259Z,28.90
2022-11-12T21:52:24.460Z,28.90
2022-11-12T21:55:26.453Z,28.90
2022-11-12T21:58:29.617Z,28.90
2022-11-12T22:01:34.217Z,29.10
2022-11-12T22:04:36.727Z,29.10
2022-11-12T22:07:38.614Z,29.10
2022-11-12T22:10:40.780Z,29.20
2022-11-12T22:13:43.001Z,29.20
2022-11-12T22:16:45.219Z,29.20
2022-11-12T22:19:47.061Z,29.20
2022-11-12T22:22:53.270Z,29.30
2022-11-12T22:25:58.877Z,29.20
2022-11-12T22:29:01.805Z,29.10
2022-11-12T22:32:03.949Z,29.10
2022-11-12T22:35:06.698Z,29.10
2022-11-12T22:38:08.629Z,29.40
2022-11-12T22:41:13.653Z,29.30
2022-11-12T22:44:15.531Z,29.30
2022-11-12T22:47:17.737Z,29.40
2022-11-12T22:50:19.697Z,29.50
2022-11-12T22:53:21.821Z,29.50
2022-11-12T22:56:25.206Z,29.40
2022-11-12T22:59:27.442Z,29.40
2022-11-12T23:02:29.281Z,29.40
2022-11-12T23:05:31.666Z,29.40
2022-11-12T23:08:35.885Z,29.30
2022-11-12T23:11:38.369Z,29.40
2022-11-12T23:14:40.240Z,29.50
2022-11-12T23:17:42.371Z,29.40
2022-11-12T23:20:44.271Z,29.40
2022-11-12T23:23:46.707Z,29.40
2022-11-12T23:26:48.801Z,29.40
2022-11-12T23:29:51.371Z,29.40
2022-11-12T23:32:53.299Z,29.50
2022-11-12T23:36:02.861Z,29.50
2022-11-12T23:39:04.767Z,29.50
2022-11-12T23:42:06.877Z,29.50
2022-11-12T23:45:09.555Z,29.50
2022-11-12T23:48:11.712Z,29.40
2022-11-12T23:51:19.262Z,29.30
2022-11-12T23:54:21.385Z,29.30
2022-11-12T23:57:23.301Z,29.40
